sensor_id;sensor_type;location;lat;lon;timestamp;temperature;humidity
6792;DHT22;3433;48.730;9.108;2024-03-17T00:02:39;9.30;99.90
6792;DHT22;3433;48.730;9.108;2024-03-17T00:05:26;9.30;99.90
6792;DHT22;3433;48.730;9.108;2024-03-17T00:08:13;9.20;99.90
6792;DHT22;3433;48.730;9.108;2024-03-17T00:11:00;9.20;99.90
6792;DHT22;3433;48.730;9.108;2024-03-17T00:13:48;9.10;99.90
6792;DHT22;3433;48.730;9.108;2024-03-17T00:16:35;9.10;99.90
6792;DHT22;3433;48.730;9.108;2024-03-17T00:19:23;9.10;99.90
6792;DHT22;3433;48.730;9.108;2024-03-17T00:22:10;9.10;99.90
6792;DHT22;3433;48.730;9.108;2024-03-17T00:24:59;9.10;99.90
6792;DHT22;3433;48.730;9.108;2024-03-17T00:27:46;9.10;99.90
6792;DHT22;3433;48.730;9.108;2024-03-17T00:30:37;9.10;99.90
6792;DHT22;3433;48.730;9.108;2024-03-17T00:33:23;9.00;99.90
6792;DHT22;3433;48.730;9.108;2024-03-17T00:36:10;9.00;99.90
6792;DHT22;3433;48.730;9.108;2024-03-17T00:38:58;9.00;99.90
6792;DHT22;3433;48.730;9.108;2024-03-17T00:41:44;9.00;99.90
6792;DHT22;3433;48.730;9.108;2024-03-17T00:44:31;9.00;99.90
6792;DHT22;3433;48.730;9.108;2024-03-17T00:47:19;9.00;99.90
6792;DHT22;3433;48.730;9.108;2024-03-17T00:50:07;9.00;99.90
6792;DHT22;3433;48.730;9.108;2024-03-17T00:52:54;9.00;99.90
6792;DHT22;3433;48.730;9.108;2024-03-17T00:55:40;9.00;99.90
6792;DHT22;3433;48.730;9.108;2024-03-17T00:58:27;9.00;99.90
6792;DHT22;3433;48.730;9.108;2024-03-17T01:01:14;8.90;99.90
6792;DHT22;3433;48.730;9.108;2024-03-17T01:04:03;8.90;99.90
6792;DHT22;3433;48.730;9.108;2024-03-17T01:06:50;8.90;99.90
6792;DHT22;3433;48.730;9.108;2024-03-17T01:09:36;8.80;99.90
6792;DHT22;3433;48.730;9.108;2024-03-17T01:12:23;8.80;99.90
6792;DHT22;3433;48.730;9.108;2024-03-17T01:15:10;8.80;99.90
6792;DHT22;3433;48.730;9.108;2024-03-17T01:17:58;8.80;99.90
6792;DHT22;3433;48.730;9.108;2024-03-17T01:20:45;8.80;99.90
6792;DHT22;3433;48.730;9.108;2024-03-17T01:23:33;8.90;99.90
6792;DHT22;3433;48.730;9.108;2024-03-17T01:26:20;8.90;99.90
6792;DHT22;3433;48.730;9.108;2024-03-17T01:29:07;8.80;99.90
6792;DHT22;3433;48.730;9.108;2024-03-17T01:31:54;8.80;99.90
6792;DHT22;3433;48.730;9.108;2024-03-17T01:34:41;8.80;99.90
6792;DHT22;3433;48.730;9.108;2024-03-17T01:37:30;8.80;99.90
6792;DHT22;3433;48.730;9.108;2024-03-17T01:40:18;8.70;99.90
6792;DHT22;3433;48.730;9.108;2024-03-17T01:43:05;8.80;99.90
6792;DHT22;3433;48.730;9.108;2024-03-17T01:45:58;8.80;99.90
6792;DHT22;3433;48.730;9.108;2024-03-17T01:48:45;8.80;99.90
6792;DHT22;3433;48.730;9.108;2024-03-17T01:51:32;8.80;99.90
6792;DHT22;3433;48.730;9.108;2024-03-17T01:54:21;8.80;99.90
6792;DHT22;3433;48.730;9.108;2024-03-17T01:57:08;8.80;99.90
6792;DHT22;3433;48.730;9.108;2024-03-17T01:59:56;8.80;99.90
6792;DHT22;3433;48.730;9.108;2024-03-17T02:02:44;8.90;99.90
6792;DHT22;3433;48.730;9.108;2024-03-17T02:05:31;8.90;99.90
6792;DHT22;3433;48.730;9.108;2024-03-17T02:08:17;9.00;99.90
6792;DHT22;3433;48.730;9.108;2024-03-17T02:11:23;9.00;99.90
6792;DHT22;3433;48.730;9.108;2024-03-17T02:14:10;9.00;99.90
6792;DHT22;3433;48.730;9.108;2024-03-17T02:17:00;9.10;99.90
6792;DHT22;3433;48.730;9.108;2024-03-17T02:19:46;9.10;99.90
6792;DHT22;3433;48.730;9.108;2024-03-17T02:22:35;9.20;99.90
6792;DHT22;3433;48.730;9.108;2024-03-17T02:25:21;9.20;99.90
6792;DHT22;3433;48.730;9.108;2024-03-17T02:28:08;9.20;99.90
6792;DHT22;3433;48.730;9.108;2024-03-17T02:30:54;9.30;99.90
6792;DHT22;3433;48.730;9.108;2024-03-17T02:33:42;9.30;99.90
6792;DHT22;3433;48.730;9.108;2024-03-17T02:36:29;9.30;99.90
6792;DHT22;3433;48.730;9.108;2024-03-17T02:39:19;9.30;99.90
6792;DHT22;3433;48.730;9.108;2024-03-17T02:42:19;9.30;99.90
6792;DHT22;3433;48.730;9.108;2024-03-17T02:45:08;9.30;99.90
6792;DHT22;3433;48.730;9.108;2024-03-17T02:47:56;9.30;99.90
6792;DHT22;3433;48.730;9.108;2024-03-17T02:50:43;9.30;99.90
6792;DHT22;3433;48.730;9.108;2024-03-17T02:53:30;9.20;99.90
6792;DHT22;3433;48.730;9.108;2024-03-17T02:56:18;9.20;99.90
6792;DHT22;3433;48.730;9.108;2024-03-17T02:59:06;9.20;99.90
6792;DHT22;3433;48.730;9.108;2024-03-17T03:01:53;9.20;99.90
6792;DHT22;3433;48.730;9.108;2024-03-17T03:04:41;9.30;99.90
6792;DHT22;3433;48.730;9.108;2024-03-17T03:07:28;9.30;99.90
6792;DHT22;3433;48.730;9.108;2024-03-17T03:10:15;9.20;99.90
6792;DHT22;3433;48.730;9.108;2024-03-17T03:13:04;9.20;99.90
6792;DHT22;3433;48.730;9.108;2024-03-17T03:15:51;9.20;99.90
6792;DHT22;3433;48.730;9.108;2024-03-17T03:18:39;9.20;99.90
6792;DHT22;3433;48.730;9.108;2024-03-17T03:21:26;9.20;99.90
6792;DHT22;3433;48.730;9.108;2024-03-17T03:24:14;9.20;99.90
6792;DHT22;3433;48.730;9.108;2024-03-17T03:27:01;9.20;99.90
6792;DHT22;3433;48.730;9.108;2024-03-17T03:29:51;9.20;99.90
6792;DHT22;3433;48.730;9.108;2024-03-17T03:32:39;9.20;99.90
6792;DHT22;3433;48.730;9.108;2024-03-17T03:35:28;9.20;99.90
6792;DHT22;3433;48.730;9.108;2024-03-17T03:38:16;9.20;99.90
6792;DHT22;3433;48.730;9.108;2024-03-17T03:41:08;9.20;99.90
6792;DHT22;3433;48.730;9.108;2024-03-17T03:43:55;9.20;99.90
6792;DHT22;3433;48.730;9.108;2024-03-17T03:46:44;9.20;99.90
6792;DHT22;3433;48.730;9.108;2024-03-17T03:49:32;9.10;99.90
6792;DHT22;3433;48.730;9.108;2024-03-17T03:52:20;9.10;99.90
6792;DHT22;3433;48.730;9.108;2024-03-17T03:55:09;9.10;99.90
6792;DHT22;3433;48.730;9.108;2024-03-17T03:58:00;9.00;99.90
6792;DHT22;3433;48.730;9.108;2024-03-17T04:00:49;9.00;99.90
6792;DHT22;3433;48.730;9.108;2024-03-17T04:03:38;9.00;99.90
6792;DHT22;3433;48.730;9.108;2024-03-17T04:06:25;9.00;99.90
6792;DHT22;3433;48.730;9.108;2024-03-17T04:09:12;9.00;99.90
6792;DHT22;3433;48.730;9.108;2024-03-17T04:11:59;8.90;99.90
6792;DHT22;3433;48.730;9.108;2024-03-17T04:14:46;8.90;99.90
6792;DHT22;3433;48.730;9.108;2024-03-17T04:17:38;8.90;99.90
6792;DHT22;3433;48.730;9.108;2024-03-17T04:20:26;8.90;99.90
6792;DHT22;3433;48.730;9.108;2024-03-17T04:23:14;8.90;99.90
6792;DHT22;3433;48.730;9.108;2024-03-17T04:26:01;8.90;99.90
6792;DHT22;3433;48.730;9.108;2024-03-17T04:28:49;8.90;99.90
6792;DHT22;3433;48.730;9.108;2024-03-17T04:31:36;8.90;99.90
6792;DHT22;3433;48.730;9.108;2024-03-17T04:34:23;8.90;99.90
6792;DHT22;3433;48.730;9.108;2024-03-17T04:37:13;8.90;99.90
6792;DHT22;3433;48.730;9.108;2024-03-17T04:40:00;8.90;99.90
6792;DHT22;3433;48.730;9.108;2024-03-17T04:42:50;8.90;99.90
6792;DHT22;3433;48.730;9.108;2024-03-17T04:45:37;8.90;99.90
6792;DHT22;3433;48.730;9.108;2024-03-17T04:48:25;8.90;99.90
6792;DHT22;3433;48.730;9.108;2024-03-17T04:51:15;8.90;99.90
6792;DHT22;3433;48.730;9.108;2024-03-17T04:54:04;8.80;99.90
6792;DHT22;3433;48.730;9.108;2024-03-17T04:56:53;8.80;99.90
6792;DHT22;3433;48.730;9.108;2024-03-17T04:59:40;8.80;99.90
6792;DHT22;3433;48.730;9.108;2024-03-17T05:02:27;8.80;99.90
6792;DHT22;3433;48.730;9.108;2024-03-17T05:05:14;8.80;99.90
6792;DHT22;3433;48.730;9.108;2024-03-17T05:08:01;8.80;99.90
6792;DHT22;3433;48.730;9.108;2024-03-17T05:10:56;8.70;99.90
6792;DHT22;3433;48.730;9.108;2024-03-17T05:13:43;8.70;99.90
6792;DHT22;3433;48.730;9.108;2024-03-17T05:16:30;8.70;99.90
6792;DHT22;3433;48.730;9.108;2024-03-17T05:19:17;8.70;99.90
6792;DHT22;3433;48.730;9.108;2024-03-17T05:22:05;8.70;99.90
6792;DHT22;3433;48.730;9.108;2024-03-17T05:24:52;8.70;99.90
6792;DHT22;3433;48.730;9.108;2024-03-17T05:27:41;8.60;99.90
6792;DHT22;3433;48.730;9.108;2024-03-17T05:30:28;8.70;99.90
6792;DHT22;3433;48.730;9.108;2024-03-17T05:33:16;8.70;99.90
6792;DHT22;3433;48.730;9.108;2024-03-17T05:36:04;8.60;99.90
6792;DHT22;3433;48.730;9.108;2024-03-17T05:38:51;8.60;99.90
6792;DHT22;3433;48.730;9.108;2024-03-17T05:41:38;8.60;99.90
6792;DHT22;3433;48.730;9.108;2024-03-17T05:44:28;8.70;99.90
6792;DHT22;3433;48.730;9.108;2024-03-17T05:47:16;8.60;99.90
6792;DHT22;3433;48.730;9.108;2024-03-17T05:50:04;8.70;99.90
6792;DHT22;3433;48.730;9.108;2024-03-17T05:52:51;8.60;99.90
6792;DHT22;3433;48.730;9.108;2024-03-17T05:55:39;8.60;99.90
6792;DHT22;3433;48.730;9.108;2024-03-17T05:58:29;8.60;99.90
6792;DHT22;3433;48.730;9.108;2024-03-17T06:01:18;8.70;99.90
6792;DHT22;3433;48.730;9.108;2024-03-17T06:04:05;8.70;99.90
6792;DHT22;3433;48.730;9.108;2024-03-17T06:06:52;8.60;99.90
6792;DHT22;3433;48.730;9.108;2024-03-17T06:09:39;8.60;99.90
6792;DHT22;3433;48.730;9.108;2024-03-17T06:12:26;8.60;99.90
6792;DHT22;3433;48.730;9.108;2024-03-17T06:15:14;8.70;99.90
6792;DHT22;3433;48.730;9.108;2024-03-17T06:18:04;8.70;99.90
6792;DHT22;3433;48.730;9.108;2024-03-17T06:20:55;8.70;99.90
6792;DHT22;3433;48.730;9.108;2024-03-17T06:23:44;8.70;99.90
6792;DHT22;3433;48.730;9.108;2024-03-17T06:26:31;8.70;99.90
6792;DHT22;3433;48.730;9.108;2024-03-17T06:29:20;8.80;99.90
6792;DHT22;3433;48.730;9.108;2024-03-17T06:32:07;8.80;99.90
6792;DHT22;3433;48.730;9.108;2024-03-17T06:34:55;8.80;99.90
6792;DHT22;3433;48.730;9.108;2024-03-17T06:37:43;8.90;99.90
6792;DHT22;3433;48.730;9.108;2024-03-17T06:40:30;8.90;99.90
6792;DHT22;3433;48.730;9.108;2024-03-17T06:43:17;9.00;99.90
6792;DHT22;3433;48.730;9.108;2024-03-17T06:46:05;9.10;99.90
6792;DHT22;3433;48.730;9.108;2024-03-17T06:48:53;9.10;99.90
6792;DHT22;3433;48.730;9.108;2024-03-17T06:51:45;9.10;99.90
6792;DHT22;3433;48.730;9.108;2024-03-17T06:54:34;9.10;99.90
6792;DHT22;3433;48.730;9.108;2024-03-17T06:57:22;9.20;99.90
6792;DHT22;3433;48.730;9.108;2024-03-17T07:00:09;9.20;99.90
6792;DHT22;3433;48.730;9.108;2024-03-17T07:02:59;9.50;99.90
6792;DHT22;3433;48.730;9.108;2024-03-17T07:05:51;9.60;99.90
6792;DHT22;3433;48.730;9.108;2024-03-17T07:08:40;9.80;99.90
6792;DHT22;3433;48.730;9.108;2024-03-17T07:11:28;9.70;99.90
6792;DHT22;3433;48.730;9.108;2024-03-17T07:14:15;9.40;99.90
6792;DHT22;3433;48.730;9.108;2024-03-17T07:17:03;9.20;99.90
6792;DHT22;3433;48.730;9.108;2024-03-17T07:19:50;9.60;99.90
6792;DHT22;3433;48.730;9.108;2024-03-17T07:22:37;10.00;99.90
6792;DHT22;3433;48.730;9.108;2024-03-17T07:25:26;9.80;99.90
6792;DHT22;3433;48.730;9.108;2024-03-17T07:28:13;10.10;99.90
6792;DHT22;3433;48.730;9.108;2024-03-17T07:31:00;10.10;99.90
6792;DHT22;3433;48.730;9.108;2024-03-17T07:33:47;10.20;99.90
6792;DHT22;3433;48.730;9.108;2024-03-17T07:36:35;10.10;99.90
6792;DHT22;3433;48.730;9.108;2024-03-17T07:39:22;10.20;99.90
6792;DHT22;3433;48.730;9.108;2024-03-17T07:42:10;10.50;99.90
6792;DHT22;3433;48.730;9.108;2024-03-17T07:44:59;10.60;99.90
6792;DHT22;3433;48.730;9.108;2024-03-17T07:47:46;10.50;99.90
6792;DHT22;3433;48.730;9.108;2024-03-17T07:50:34;10.70;99.90
6792;DHT22;3433;48.730;9.108;2024-03-17T07:53:21;10.30;99.90
6792;DHT22;3433;48.730;9.108;2024-03-17T07:56:11;10.00;99.90
6792;DHT22;3433;48.730;9.108;2024-03-17T07:58:59;10.00;99.90
6792;DHT22;3433;48.730;9.108;2024-03-17T08:01:47;10.30;99.90
6792;DHT22;3433;48.730;9.108;2024-03-17T08:04:34;10.40;99.90
6792;DHT22;3433;48.730;9.108;2024-03-17T08:07:23;10.00;99.90
6792;DHT22;3433;48.730;9.108;2024-03-17T08:10:10;9.80;99.90
6792;DHT22;3433;48.730;9.108;2024-03-17T08:12:57;10.20;99.90
6792;DHT22;3433;48.730;9.108;2024-03-17T08:15:54;10.40;99.90
6792;DHT22;3433;48.730;9.108;2024-03-17T08:18:42;10.20;99.90
6792;DHT22;3433;48.730;9.108;2024-03-17T08:21:29;10.30;99.90
6792;DHT22;3433;48.730;9.108;2024-03-17T08:24:16;10.80;99.90
6792;DHT22;3433;48.730;9.108;2024-03-17T08:27:04;10.60;99.90
6792;DHT22;3433;48.730;9.108;2024-03-17T08:29:52;10.50;99.90
6792;DHT22;3433;48.730;9.108;2024-03-17T08:32:40;10.20;99.90
6792;DHT22;3433;48.730;9.108;2024-03-17T08:35:28;10.20;99.90
6792;DHT22;3433;48.730;9.108;2024-03-17T08:38:15;10.20;99.90
6792;DHT22;3433;48.730;9.108;2024-03-17T08:41:05;10.00;99.90
6792;DHT22;3433;48.730;9.108;2024-03-17T08:43:53;10.40;99.90
6792;DHT22;3433;48.730;9.108;2024-03-17T08:46:40;10.50;99.90
6792;DHT22;3433;48.730;9.108;2024-03-17T08:49:29;10.90;99.90
6792;DHT22;3433;48.730;9.108;2024-03-17T08:52:16;10.90;99.90
6792;DHT22;3433;48.730;9.108;2024-03-17T08:55:03;11.00;99.90
6792;DHT22;3433;48.730;9.108;2024-03-17T08:57:55;11.20;99.90
6792;DHT22;3433;48.730;9.108;2024-03-17T09:00:43;11.30;99.90
6792;DHT22;3433;48.730;9.108;2024-03-17T09:03:31;11.70;99.90
6792;DHT22;3433;48.730;9.108;2024-03-17T09:06:19;11.10;99.90
6792;DHT22;3433;48.730;9.108;2024-03-17T09:09:08;11.50;99.90
6792;DHT22;3433;48.730;9.108;2024-03-17T09:11:55;11.50;99.90
6792;DHT22;3433;48.730;9.108;2024-03-17T09:14:42;11.40;99.90
6792;DHT22;3433;48.730;9.108;2024-03-17T09:17:29;11.80;99.90
6792;DHT22;3433;48.730;9.108;2024-03-17T09:20:16;11.90;99.90
6792;DHT22;3433;48.730;9.108;2024-03-17T09:23:05;12.10;99.90
6792;DHT22;3433;48.730;9.108;2024-03-17T09:25:56;11.90;99.90
6792;DHT22;3433;48.730;9.108;2024-03-17T09:28:44;11.70;99.90
6792;DHT22;3433;48.730;9.108;2024-03-17T09:31:31;11.50;99.90
6792;DHT22;3433;48.730;9.108;2024-03-17T09:34:21;11.50;99.90
6792;DHT22;3433;48.730;9.108;2024-03-17T09:37:08;11.50;99.90
6792;DHT22;3433;48.730;9.108;2024-03-17T09:39:56;11.60;99.90
6792;DHT22;3433;48.730;9.108;2024-03-17T09:42:45;11.60;99.90
6792;DHT22;3433;48.730;9.108;2024-03-17T09:45:33;11.60;99.90
6792;DHT22;3433;48.730;9.108;2024-03-17T09:48:21;11.50;99.90
6792;DHT22;3433;48.730;9.108;2024-03-17T09:51:17;11.10;99.90
6792;DHT22;3433;48.730;9.108;2024-03-17T09:54:17;11.30;99.90
6792;DHT22;3433;48.730;9.108;2024-03-17T09:57:16;11.70;99.90
6792;DHT22;3433;48.730;9.108;2024-03-17T10:00:06;11.70;99.90
6792;DHT22;3433;48.730;9.108;2024-03-17T10:02:58;11.50;99.90
6792;DHT22;3433;48.730;9.108;2024-03-17T10:05:46;11.80;99.90
6792;DHT22;3433;48.730;9.108;2024-03-17T10:08:33;12.00;99.90
6792;DHT22;3433;48.730;9.108;2024-03-17T10:11:24;11.90;99.90
6792;DHT22;3433;48.730;9.108;2024-03-17T10:14:16;11.90;99.90
6792;DHT22;3433;48.730;9.108;2024-03-17T10:17:04;12.00;99.90
6792;DHT22;3433;48.730;9.108;2024-03-17T10:19:52;12.10;99.90
6792;DHT22;3433;48.730;9.108;2024-03-17T10:22:39;11.90;99.90
6792;DHT22;3433;48.730;9.108;2024-03-17T10:25:27;11.90;99.90
6792;DHT22;3433;48.730;9.108;2024-03-17T10:28:17;11.90;99.90
6792;DHT22;3433;48.730;9.108;2024-03-17T10:31:07;12.10;99.90
6792;DHT22;3433;48.730;9.108;2024-03-17T10:34:01;11.90;99.90
6792;DHT22;3433;48.730;9.108;2024-03-17T10:36:48;12.30;99.90
6792;DHT22;3433;48.730;9.108;2024-03-17T10:39:35;12.10;99.90
6792;DHT22;3433;48.730;9.108;2024-03-17T10:42:25;12.10;99.90
6792;DHT22;3433;48.730;9.108;2024-03-17T10:45:14;12.30;99.90
6792;DHT22;3433;48.730;9.108;2024-03-17T10:48:03;12.70;99.90
6792;DHT22;3433;48.730;9.108;2024-03-17T10:50:57;12.80;99.90
6792;DHT22;3433;48.730;9.108;2024-03-17T10:53:47;13.10;99.90
6792;DHT22;3433;48.730;9.108;2024-03-17T10:56:35;13.20;99.90
6792;DHT22;3433;48.730;9.108;2024-03-17T10:59:32;12.90;99.90
6792;DHT22;3433;48.730;9.108;2024-03-17T11:02:23;12.40;99.90
6792;DHT22;3433;48.730;9.108;2024-03-17T11:05:15;12.80;99.90
6792;DHT22;3433;48.730;9.108;2024-03-17T11:08:03;13.20;99.90
6792;DHT22;3433;48.730;9.108;2024-03-17T11:10:52;12.50;99.90
6792;DHT22;3433;48.730;9.108;2024-03-17T11:13:40;12.30;99.90
6792;DHT22;3433;48.730;9.108;2024-03-17T11:16:27;12.50;99.90
6792;DHT22;3433;48.730;9.108;2024-03-17T11:19:15;12.90;99.90
6792;DHT22;3433;48.730;9.108;2024-03-17T11:25:44;13.30;99.90
6792;DHT22;3433;48.730;9.108;2024-03-17T11:28:46;12.90;99.90
6792;DHT22;3433;48.730;9.108;2024-03-17T11:31:41;13.10;99.90
6792;DHT22;3433;48.730;9.108;2024-03-17T11:34:33;13.50;99.90
6792;DHT22;3433;48.730;9.108;2024-03-17T11:37:42;13.60;99.90
6792;DHT22;3433;48.730;9.108;2024-03-17T11:40:29;13.80;99.90
6792;DHT22;3433;48.730;9.108;2024-03-17T11:43:17;13.80;99.90
6792;DHT22;3433;48.730;9.108;2024-03-17T11:46:04;14.00;99.90
6792;DHT22;3433;48.730;9.108;2024-03-17T11:48:51;14.00;99.90
6792;DHT22;3433;48.730;9.108;2024-03-17T11:51:38;14.00;99.90
6792;DHT22;3433;48.730;9.108;2024-03-17T11:54:27;14.00;99.90
6792;DHT22;3433;48.730;9.108;2024-03-17T11:57:24;13.80;99.90
6792;DHT22;3433;48.730;9.108;2024-03-17T12:00:19;13.80;99.90
6792;DHT22;3433;48.730;9.108;2024-03-17T12:03:09;13.80;99.90
6792;DHT22;3433;48.730;9.108;2024-03-17T12:05:56;14.10;99.90
6792;DHT22;3433;48.730;9.108;2024-03-17T12:08:43;14.10;99.90
6792;DHT22;3433;48.730;9.108;2024-03-17T12:11:30;14.10;99.90
6792;DHT22;3433;48.730;9.108;2024-03-17T12:14:19;14.20;99.90
6792;DHT22;3433;48.730;9.108;2024-03-17T12:17:08;14.40;99.90
6792;DHT22;3433;48.730;9.108;2024-03-17T12:19:55;14.60;99.90
6792;DHT22;3433;48.730;9.108;2024-03-17T12:22:42;14.60;99.90
6792;DHT22;3433;48.730;9.108;2024-03-17T12:25:29;14.50;99.90
6792;DHT22;3433;48.730;9.108;2024-03-17T12:28:16;14.40;99.90
6792;DHT22;3433;48.730;9.108;2024-03-17T12:31:03;14.30;99.90
6792;DHT22;3433;48.730;9.108;2024-03-17T12:33:53;14.30;99.90
6792;DHT22;3433;48.730;9.108;2024-03-17T12:36:39;14.10;99.90
6792;DHT22;3433;48.730;9.108;2024-03-17T12:39:27;14.30;99.90
6792;DHT22;3433;48.730;9.108;2024-03-17T12:42:15;14.40;99.90
6792;DHT22;3433;48.730;9.108;2024-03-17T12:45:03;14.50;99.90
6792;DHT22;3433;48.730;9.108;2024-03-17T12:47:55;14.40;99.90
6792;DHT22;3433;48.730;9.108;2024-03-17T12:50:47;14.30;99.90
6792;DHT22;3433;48.730;9.108;2024-03-17T12:53:33;14.30;99.90
6792;DHT22;3433;48.730;9.108;2024-03-17T12:56:23;14.30;99.90
6792;DHT22;3433;48.730;9.108;2024-03-17T12:59:40;14.40;99.90
6792;DHT22;3433;48.730;9.108;2024-03-17T13:02:45;14.50;99.90
6792;DHT22;3433;48.730;9.108;2024-03-17T13:05:33;14.60;99.90
6792;DHT22;3433;48.730;9.108;2024-03-17T13:08:22;14.70;99.90
6792;DHT22;3433;48.730;9.108;2024-03-17T13:11:09;14.70;99.90
6792;DHT22;3433;48.730;9.108;2024-03-17T13:13:57;14.70;99.90
6792;DHT22;3433;48.730;9.108;2024-03-17T13:16:44;14.70;99.90
6792;DHT22;3433;48.730;9.108;2024-03-17T13:19:32;14.80;99.90
6792;DHT22;3433;48.730;9.108;2024-03-17T13:22:22;14.50;99.90
6792;DHT22;3433;48.730;9.108;2024-03-17T13:25:13;14.60;99.90
6792;DHT22;3433;48.730;9.108;2024-03-17T13:28:01;14.70;99.90
6792;DHT22;3433;48.730;9.108;2024-03-17T13:30:49;14.70;99.90
6792;DHT22;3433;48.730;9.108;2024-03-17T13:33:36;14.50;99.90
6792;DHT22;3433;48.730;9.108;2024-03-17T13:36:24;14.40;99.90
6792;DHT22;3433;48.730;9.108;2024-03-17T13:39:11;14.60;99.90
6792;DHT22;3433;48.730;9.108;2024-03-17T13:42:01;14.70;99.90
6792;DHT22;3433;48.730;9.108;2024-03-17T13:44:49;14.50;99.90
6792;DHT22;3433;48.730;9.108;2024-03-17T13:47:36;14.70;99.90
6792;DHT22;3433;48.730;9.108;2024-03-17T13:50:24;14.80;99.90
6792;DHT22;3433;48.730;9.108;2024-03-17T13:53:11;14.60;99.90
6792;DHT22;3433;48.730;9.108;2024-03-17T13:55:59;14.60;99.90
6792;DHT22;3433;48.730;9.108;2024-03-17T13:58:51;14.90;99.90
6792;DHT22;3433;48.730;9.108;2024-03-17T14:01:38;14.90;99.90
6792;DHT22;3433;48.730;9.108;2024-03-17T14:04:25;14.60;99.90
6792;DHT22;3433;48.730;9.108;2024-03-17T14:07:12;14.70;99.90
6792;DHT22;3433;48.730;9.108;2024-03-17T14:10:00;14.70;99.90
6792;DHT22;3433;48.730;9.108;2024-03-17T14:12:48;14.80;99.90
6792;DHT22;3433;48.730;9.108;2024-03-17T14:15:36;14.90;99.90
6792;DHT22;3433;48.730;9.108;2024-03-17T14:18:23;15.00;99.90
6792;DHT22;3433;48.730;9.108;2024-03-17T14:21:11;14.90;99.90
6792;DHT22;3433;48.730;9.108;2024-03-17T14:23:58;15.00;99.90
6792;DHT22;3433;48.730;9.108;2024-03-17T14:26:47;15.10;99.90
6792;DHT22;3433;48.730;9.108;2024-03-17T14:29:34;14.90;99.90
6792;DHT22;3433;48.730;9.108;2024-03-17T14:32:23;14.90;99.90
6792;DHT22;3433;48.730;9.108;2024-03-17T14:35:13;15.00;99.90
6792;DHT22;3433;48.730;9.108;2024-03-17T14:38:00;15.30;99.90
6792;DHT22;3433;48.730;9.108;2024-03-17T14:40:49;15.20;99.90
6792;DHT22;3433;48.730;9.108;2024-03-17T14:43:38;14.90;99.80
6792;DHT22;3433;48.730;9.108;2024-03-17T14:46:26;15.00;99.90
6792;DHT22;3433;48.730;9.108;2024-03-17T14:49:15;15.10;99.90
6792;DHT22;3433;48.730;9.108;2024-03-17T14:52:03;15.10;99.90
6792;DHT22;3433;48.730;9.108;2024-03-17T14:54:51;14.60;99.80
6792;DHT22;3433;48.730;9.108;2024-03-17T14:57:42;14.30;99.90
6792;DHT22;3433;48.730;9.108;2024-03-17T15:00:29;14.60;99.90
6792;DHT22;3433;48.730;9.108;2024-03-17T15:03:17;14.50;99.90
6792;DHT22;3433;48.730;9.108;2024-03-17T15:06:11;14.20;99.90
6792;DHT22;3433;48.730;9.108;2024-03-17T15:08:58;14.20;99.90
6792;DHT22;3433;48.730;9.108;2024-03-17T15:11:45;14.50;99.90
6792;DHT22;3433;48.730;9.108;2024-03-17T15:14:33;14.70;99.90
6792;DHT22;3433;48.730;9.108;2024-03-17T15:17:20;14.50;99.90
6792;DHT22;3433;48.730;9.108;2024-03-17T15:20:08;14.60;99.90
6792;DHT22;3433;48.730;9.108;2024-03-17T15:23:03;14.60;99.90
6792;DHT22;3433;48.730;9.108;2024-03-17T15:25:51;14.50;99.90
6792;DHT22;3433;48.730;9.108;2024-03-17T15:28:41;14.20;99.90
6792;DHT22;3433;48.730;9.108;2024-03-17T15:31:28;14.20;99.90
6792;DHT22;3433;48.730;9.108;2024-03-17T15:34:16;14.20;99.90
6792;DHT22;3433;48.730;9.108;2024-03-17T15:37:03;14.60;99.90
6792;DHT22;3433;48.730;9.108;2024-03-17T15:39:52;14.70;99.90
6792;DHT22;3433;48.730;9.108;2024-03-17T15:42:41;14.80;99.90
6792;DHT22;3433;48.730;9.108;2024-03-17T15:45:29;15.00;99.90
6792;DHT22;3433;48.730;9.108;2024-03-17T15:48:16;14.70;99.90
6792;DHT22;3433;48.730;9.108;2024-03-17T15:51:03;14.50;99.90
6792;DHT22;3433;48.730;9.108;2024-03-17T15:53:51;14.70;99.90
6792;DHT22;3433;48.730;9.108;2024-03-17T15:56:40;14.80;99.90
6792;DHT22;3433;48.730;9.108;2024-03-17T15:59:27;14.70;99.90
6792;DHT22;3433;48.730;9.108;2024-03-17T16:02:14;14.60;99.90
6792;DHT22;3433;48.730;9.108;2024-03-17T16:05:02;14.50;99.90
6792;DHT22;3433;48.730;9.108;2024-03-17T16:07:50;14.30;99.90
6792;DHT22;3433;48.730;9.108;2024-03-17T16:10:37;14.30;99.90
6792;DHT22;3433;48.730;9.108;2024-03-17T16:13:27;14.10;99.90
6792;DHT22;3433;48.730;9.108;2024-03-17T16:16:16;14.30;99.90
6792;DHT22;3433;48.730;9.108;2024-03-17T16:19:04;14.20;99.90
6792;DHT22;3433;48.730;9.108;2024-03-17T16:21:53;14.00;99.90
6792;DHT22;3433;48.730;9.108;2024-03-17T16:24:42;14.00;99.90
6792;DHT22;3433;48.730;9.108;2024-03-17T16:27:30;13.80;99.90
6792;DHT22;3433;48.730;9.108;2024-03-17T16:30:19;14.00;99.90
6792;DHT22;3433;48.730;9.108;2024-03-17T16:33:06;14.20;99.90
6792;DHT22;3433;48.730;9.108;2024-03-17T16:35:55;14.30;99.90
6792;DHT22;3433;48.730;9.108;2024-03-17T16:38:44;14.40;99.90
6792;DHT22;3433;48.730;9.108;2024-03-17T16:41:32;14.50;99.90
6792;DHT22;3433;48.730;9.108;2024-03-17T16:44:23;14.50;99.90
6792;DHT22;3433;48.730;9.108;2024-03-17T16:47:26;14.40;99.90
6792;DHT22;3433;48.730;9.108;2024-03-17T16:50:14;14.30;99.90
6792;DHT22;3433;48.730;9.108;2024-03-17T16:53:01;14.10;99.90
6792;DHT22;3433;48.730;9.108;2024-03-17T16:55:49;14.20;99.90
6792;DHT22;3433;48.730;9.108;2024-03-17T16:58:37;14.20;99.90
6792;DHT22;3433;48.730;9.108;2024-03-17T17:01:24;14.30;99.90
6792;DHT22;3433;48.730;9.108;2024-03-17T17:04:13;14.50;99.90
6792;DHT22;3433;48.730;9.108;2024-03-17T17:07:00;14.50;99.90
6792;DHT22;3433;48.730;9.108;2024-03-17T17:09:47;14.50;99.90
6792;DHT22;3433;48.730;9.108;2024-03-17T17:12:34;14.40;99.90
6792;DHT22;3433;48.730;9.108;2024-03-17T17:15:21;14.10;99.90
6792;DHT22;3433;48.730;9.108;2024-03-17T17:18:49;13.80;99.90
6792;DHT22;3433;48.730;9.108;2024-03-17T17:21:38;14.00;99.90
6792;DHT22;3433;48.730;9.108;2024-03-17T17:24:26;13.70;99.90
6792;DHT22;3433;48.730;9.108;2024-03-17T17:27:13;13.90;99.90
6792;DHT22;3433;48.730;9.108;2024-03-17T17:30:01;13.80;99.90
6792;DHT22;3433;48.730;9.108;2024-03-17T17:32:48;13.90;99.90
6792;DHT22;3433;48.730;9.108;2024-03-17T17:35:35;14.00;99.90
6792;DHT22;3433;48.730;9.108;2024-03-17T17:38:24;14.00;99.90
6792;DHT22;3433;48.730;9.108;2024-03-17T17:41:12;13.90;99.90
6792;DHT22;3433;48.730;9.108;2024-03-17T17:44:00;14.00;99.90
6792;DHT22;3433;48.730;9.108;2024-03-17T17:46:49;14.00;99.90
6792;DHT22;3433;48.730;9.108;2024-03-17T17:49:36;14.00;99.90
6792;DHT22;3433;48.730;9.108;2024-03-17T17:52:23;14.00;99.90
6792;DHT22;3433;48.730;9.108;2024-03-17T17:55:12;14.00;99.90
6792;DHT22;3433;48.730;9.108;2024-03-17T17:58:01;14.00;99.90
6792;DHT22;3433;48.730;9.108;2024-03-17T18:00:56;13.90;99.90
6792;DHT22;3433;48.730;9.108;2024-03-17T18:03:43;13.90;99.90
6792;DHT22;3433;48.730;9.108;2024-03-17T18:06:31;13.80;99.90
6792;DHT22;3433;48.730;9.108;2024-03-17T18:09:18;13.80;99.90
6792;DHT22;3433;48.730;9.108;2024-03-17T18:12:11;13.70;99.90
6792;DHT22;3433;48.730;9.108;2024-03-17T18:14:58;13.80;99.90
6792;DHT22;3433;48.730;9.108;2024-03-17T18:17:47;13.80;99.90
6792;DHT22;3433;48.730;9.108;2024-03-17T18:20:34;13.70;99.90
6792;DHT22;3433;48.730;9.108;2024-03-17T18:23:21;13.70;99.90
6792;DHT22;3433;48.730;9.108;2024-03-17T18:26:11;13.70;99.90
6792;DHT22;3433;48.730;9.108;2024-03-17T18:29:00;13.60;99.90
6792;DHT22;3433;48.730;9.108;2024-03-17T18:31:47;13.60;99.90